createdAt,value
2022-08-25T00:06:13.567Z,76.70
2022-08-25T00:16:16.999Z,77.90
2022-08-25T00:26:19.443Z,78.60
2022-08-25T00:36:21.216Z,79.50
2022-08-25T00:46:29.071Z,80.30
2022-08-25T00:56:31.937Z,80.70
2022-08-25T01:06:39.100Z,81.40
2022-08-25T01:16:42.336Z,81.90
2022-08-25T01:26:44.388Z,82.40
2022-08-25T01:36:46.096Z,83.10
2022-08-25T01:46:47.880Z,83.90
2022-08-25T01:56:49.889Z,84.80
2022-08-25T02:06:51.628Z,85.20
2022-08-25T02:16:53.701Z,85.60
2022-08-25T02:26:55.524Z,86.00
2022-08-25T02:36:57.315Z,86.60
2022-08-25T02:46:59.110Z,87.20
2022-08-25T02:57:01.151Z,87.70
2022-08-25T03:07:03.683Z,88.10
2022-08-25T03:17:08.670Z,88.50
2022-08-25T03:27:10.472Z,89.20
2022-08-25T03:37:13.867Z,89.40
2022-08-25T03:47:15.506Z,90.00
2022-08-25T03:57:17.188Z,90.20
2022-08-25T04:07:18.840Z,90.40
2022-08-25T04:17:20.522Z,90.70
2022-08-25T04:27:22.132Z,90.90
2022-08-25T04:37:23.752Z,91.40
2022-08-25T04:47:26.333Z,91.40
2022-08-25T04:57:30.388Z,91.50
2022-08-25T05:07:32.025Z,91.50
2022-08-25T05:17:33.678Z,91.70
2022-08-25T05:27:35.300Z,92.00
2022-08-25T05:37:39.996Z,92.10
2022-08-25T05:47:41.635Z,92.30
2022-08-25T05:57:43.452Z,92.30
2022-08-25T06:07:46.837Z,92.10
2022-08-25T06:17:49.725Z,92.20
2022-08-25T06:27:52.047Z,92.40
2022-08-25T06:37:53.664Z,92.30
2022-08-25T06:47:59.240Z,92.40
2022-08-25T06:58:01.142Z,92.40
2022-08-25T07:08:03.472Z,92.20
2022-08-25T07:18:05.862Z,92.10
2022-08-25T07:28:07.711Z,92.00
2022-08-25T07:38:13.031Z,91.80
2022-08-25T07:48:19.892Z,91.60
2022-08-25T07:58:21.505Z,91.60
2022-08-25T08:08:24.219Z,91.50
2022-08-25T08:18:25.883Z,91.30
2022-08-25T08:28:28.054Z,91.10
2022-08-25T08:38:29.787Z,90.80
2022-08-25T08:48:51.896Z,90.40
2022-08-25T08:58:59.000Z,90.00
2022-08-25T09:09:06.871Z,89.00
2022-08-25T09:19:41.947Z,87.70
2022-08-25T09:30:05.437Z,86.30
2022-08-25T09:40:08.003Z,84.60
2022-08-25T09:50:18.819Z,83.40
2022-08-25T10:00:27.893Z,81.70
2022-08-25T10:10:36.692Z,80.30
2022-08-25T10:20:44.501Z,78.70
2022-08-25T10:31:15.056Z,77.70
2022-08-25T10:41:30.274Z,77.00
2022-08-25T10:51:54.955Z,76.50
2022-08-25T11:02:11.867Z,75.60
2022-08-25T11:12:29.249Z,74.10
2022-08-25T11:22:39.848Z,72.50
2022-08-25T11:32:47.271Z,71.30
2022-08-25T11:43:08.074Z,70.10
2022-08-25T11:53:12.695Z,68.60
2022-08-25T12:03:32.358Z,66.90
2022-08-25T12:13:42.700Z,65.20
2022-08-25T12:24:05.655Z,63.90
2022-08-25T12:34:36.443Z,62.70
2022-08-25T12:44:43.918Z,61.00
2022-08-25T12:54:58.372Z,59.40
2022-08-25T13:05:17.755Z,58.70
2022-08-25T13:15:58.189Z,58.30
2022-08-25T13:25:59.954Z,58.30
2022-08-25T13:36:21.149Z,58.10
2022-08-25T13:46:23.067Z,57.90
2022-08-25T13:56:39.906Z,57.50
2022-08-25T14:06:42.931Z,57.50
2022-08-25T14:16:52.100Z,57.00
2022-08-25T14:26:55.906Z,56.80
2022-08-25T14:36:59.909Z,52.10
2022-08-25T14:47:02.401Z,52.20
2022-08-25T14:57:08.358Z,52.30
2022-08-25T15:07:32.614Z,52.50
2022-08-25T15:17:34.245Z,52.20
2022-08-25T15:27:37.079Z,52.10
2022-08-25T15:37:39.556Z,53.10
2022-08-25T15:47:42.238Z,53.90
2022-08-25T15:57:44.936Z,54.50
2022-08-25T16:07:51.810Z,55.10
2022-08-25T16:17:53.675Z,56.60
2022-08-25T16:27:56.166Z,57.50
2022-08-25T16:37:59.351Z,57.90
2022-08-25T16:48:05.978Z,57.70
2022-08-25T16:58:12.678Z,57.50
2022-08-25T17:08:30.848Z,57.10
2022-08-25T17:18:32.958Z,56.90
2022-08-25T17:28:34.711Z,57.30
2022-08-25T17:38:37.029Z,57.90
2022-08-25T17:48:39.596Z,58.30
2022-08-25T17:58:47.129Z,58.60
2022-08-25T18:08:52.278Z,58.90
2022-08-25T18:18:55.799Z,59.40
2022-08-25T18:28:59.086Z,59.90
2022-08-25T18:39:19.464Z,60.40
2022-08-25T18:49:21.280Z,61.10
2022-08-25T18:59:28.448Z,61.50
2022-08-25T19:09:30.727Z,61.50
2022-08-25T19:19:32.432Z,61.90
2022-08-25T19:29:34.117Z,62.20
2022-08-25T19:39:39.261Z,64.60
2022-08-25T19:49:41.968Z,64.80
2022-08-25T19:59:45.988Z,65.70
2022-08-25T20:09:49.719Z,66.50
2022-08-25T20:19:53.584Z,66.80
2022-08-25T20:29:55.226Z,67.60
2022-08-25T20:39:59.134Z,69.30
2022-08-25T20:50:04.654Z,68.90
2022-08-25T21:00:09.863Z,69.80
2022-08-25T21:10:14.465Z,70.30
2022-08-25T21:20:17.151Z,70.50
2022-08-25T21:30:18.889Z,70.90
2022-08-25T21:40:21.944Z,71.30
2022-08-25T21:50:24.904Z,71.80
2022-08-25T22:00:27.316Z,72.60
2022-08-25T22:10:28.989Z,73.10
2022-08-25T22:20:30.941Z,73.80
2022-08-25T22:30:34.223Z,75.30
2022-08-25T22:40:37.479Z,75.20
2022-08-25T22:50:39.153Z,75.90
2022-08-25T23:00:42.196Z,76.40
2022-08-25T23:10:52.908Z,77.00
2022-08-25T23:21:13.341Z,77.50
2022-08-25T23:31:17.643Z,78.00
2022-08-25T23:41:21.816Z,78.60
2022-08-25T23:51:29.747Z,79.30
